sensor_id;sensor_type;location;lat;lon;timestamp;P1;durP1;ratioP1;P2;durP2;ratioP2
7306;SDS011;3694;48.732;9.248;2023-02-28T00:00:09;3.97;;;3.13;;
7306;SDS011;3694;48.732;9.248;2023-02-28T00:02:37;2.87;;;2.60;;
7306;SDS011;3694;48.732;9.248;2023-02-28T00:05:03;3.83;;;3.00;;
7306;SDS011;3694;48.732;9.248;2023-02-28T00:07:30;5.03;;;3.67;;
7306;SDS011;3694;48.732;9.248;2023-02-28T00:09:56;4.27;;;3.30;;
7306;SDS011;3694;48.732;9.248;2023-02-28T00:12:22;3.60;;;3.10;;
7306;SDS011;3694;48.732;9.248;2023-02-28T00:14:48;6.20;;;3.30;;
7306;SDS011;3694;48.732;9.248;2023-02-28T00:17:14;5.80;;;2.97;;
7306;SDS011;3694;48.732;9.248;2023-02-28T00:19:41;5.20;;;3.10;;
7306;SDS011;3694;48.732;9.248;2023-02-28T00:22:06;3.40;;;2.90;;
7306;SDS011;3694;48.732;9.248;2023-02-28T00:24:32;3.77;;;2.97;;
7306;SDS011;3694;48.732;9.248;2023-02-28T00:26:57;3.70;;;2.80;;
7306;SDS011;3694;48.732;9.248;2023-02-28T00:29:23;4.33;;;3.87;;
7306;SDS011;3694;48.732;9.248;2023-02-28T00:31:48;4.30;;;3.10;;
7306;SDS011;3694;48.732;9.248;2023-02-28T00:34:14;3.70;;;2.77;;
7306;SDS011;3694;48.732;9.248;2023-02-28T00:36:39;2.50;;;2.30;;
7306;SDS011;3694;48.732;9.248;2023-02-28T00:39:08;4.37;;;2.97;;
7306;SDS011;3694;48.732;9.248;2023-02-28T00:41:34;3.10;;;2.70;;
7306;SDS011;3694;48.732;9.248;2023-02-28T00:43:59;3.20;;;2.40;;
7306;SDS011;3694;48.732;9.248;2023-02-28T00:46:25;3.97;;;3.10;;
7306;SDS011;3694;48.732;9.248;2023-02-28T00:48:50;3.23;;;2.53;;
7306;SDS011;3694;48.732;9.248;2023-02-28T00:51:16;2.30;;;2.10;;
7306;SDS011;3694;48.732;9.248;2023-02-28T00:53:41;5.00;;;3.20;;
7306;SDS011;3694;48.732;9.248;2023-02-28T00:56:07;3.30;;;3.00;;
7306;SDS011;3694;48.732;9.248;2023-02-28T00:58:32;3.10;;;2.80;;
7306;SDS011;3694;48.732;9.248;2023-02-28T01:00:58;3.00;;;2.70;;
7306;SDS011;3694;48.732;9.248;2023-02-28T01:03:23;6.93;;;3.70;;
7306;SDS011;3694;48.732;9.248;2023-02-28T01:05:49;3.93;;;3.03;;
7306;SDS011;3694;48.732;9.248;2023-02-28T01:08:15;4.87;;;3.40;;
7306;SDS011;3694;48.732;9.248;2023-02-28T01:10:41;3.97;;;2.60;;
7306;SDS011;3694;48.732;9.248;2023-02-28T01:13:07;3.37;;;3.00;;
7306;SDS011;3694;48.732;9.248;2023-02-28T01:15:32;6.57;;;3.70;;
7306;SDS011;3694;48.732;9.248;2023-02-28T01:17:58;4.67;;;3.23;;
7306;SDS011;3694;48.732;9.248;2023-02-28T01:20:24;3.50;;;3.17;;
7306;SDS011;3694;48.732;9.248;2023-02-28T01:22:49;4.03;;;3.07;;
7306;SDS011;3694;48.732;9.248;2023-02-28T01:25:15;5.77;;;3.87;;
7306;SDS011;3694;48.732;9.248;2023-02-28T01:27:40;4.53;;;3.23;;
7306;SDS011;3694;48.732;9.248;2023-02-28T01:30:07;6.23;;;3.60;;
7306;SDS011;3694;48.732;9.248;2023-02-28T01:32:33;5.03;;;3.57;;
7306;SDS011;3694;48.732;9.248;2023-02-28T01:34:59;4.20;;;3.07;;
7306;SDS011;3694;48.732;9.248;2023-02-28T01:37:24;4.80;;;3.50;;
7306;SDS011;3694;48.732;9.248;2023-02-28T01:39:50;4.53;;;3.30;;
7306;SDS011;3694;48.732;9.248;2023-02-28T01:42:15;4.73;;;3.80;;
7306;SDS011;3694;48.732;9.248;2023-02-28T01:44:57;5.40;;;4.10;;
7306;SDS011;3694;48.732;9.248;2023-02-28T01:47:32;4.60;;;3.50;;
7306;SDS011;3694;48.732;9.248;2023-02-28T01:50:02;5.63;;;4.00;;
7306;SDS011;3694;48.732;9.248;2023-02-28T01:52:32;5.37;;;3.90;;
7306;SDS011;3694;48.732;9.248;2023-02-28T01:54:59;3.80;;;3.40;;
7306;SDS011;3694;48.732;9.248;2023-02-28T01:57:29;5.13;;;3.67;;
7306;SDS011;3694;48.732;9.248;2023-02-28T02:00:04;6.63;;;4.23;;
7306;SDS011;3694;48.732;9.248;2023-02-28T02:02:39;5.47;;;3.57;;
7306;SDS011;3694;48.732;9.248;2023-02-28T02:05:20;5.20;;;3.57;;
7306;SDS011;3694;48.732;9.248;2023-02-28T02:07:48;4.37;;;3.83;;
7306;SDS011;3694;48.732;9.248;2023-02-28T02:10:21;4.00;;;3.60;;
7306;SDS011;3694;48.732;9.248;2023-02-28T02:16:04;4.83;;;3.43;;
7306;SDS011;3694;48.732;9.248;2023-02-28T02:21:47;5.00;;;3.67;;
7306;SDS011;3694;48.732;9.248;2023-02-28T02:24:40;5.13;;;3.70;;
7306;SDS011;3694;48.732;9.248;2023-02-28T02:27:22;5.03;;;3.97;;
7306;SDS011;3694;48.732;9.248;2023-02-28T02:40:23;4.93;;;4.07;;
7306;SDS011;3694;48.732;9.248;2023-02-28T02:43:01;3.77;;;3.20;;
7306;SDS011;3694;48.732;9.248;2023-02-28T02:45:39;6.87;;;4.13;;
7306;SDS011;3694;48.732;9.248;2023-02-28T02:48:23;3.90;;;3.50;;
7306;SDS011;3694;48.732;9.248;2023-02-28T02:50:53;3.97;;;3.60;;
7306;SDS011;3694;48.732;9.248;2023-02-28T02:53:23;5.30;;;4.10;;
7306;SDS011;3694;48.732;9.248;2023-02-28T02:55:53;4.87;;;4.30;;
7306;SDS011;3694;48.732;9.248;2023-02-28T02:58:22;3.30;;;3.00;;
7306;SDS011;3694;48.732;9.248;2023-02-28T03:00:53;3.80;;;3.40;;
7306;SDS011;3694;48.732;9.248;2023-02-28T03:03:23;5.10;;;3.97;;
7306;SDS011;3694;48.732;9.248;2023-02-28T03:05:56;4.47;;;3.67;;
7306;SDS011;3694;48.732;9.248;2023-02-28T03:08:23;6.20;;;4.03;;
7306;SDS011;3694;48.732;9.248;2023-02-28T03:10:50;4.73;;;4.23;;
7306;SDS011;3694;48.732;9.248;2023-02-28T03:24:38;4.30;;;3.53;;
7306;SDS011;3694;48.732;9.248;2023-02-28T03:27:08;5.27;;;4.17;;
7306;SDS011;3694;48.732;9.248;2023-02-28T03:29:58;4.67;;;4.20;;
7306;SDS011;3694;48.732;9.248;2023-02-28T03:32:33;6.03;;;4.83;;
7306;SDS011;3694;48.732;9.248;2023-02-28T03:35:07;6.37;;;4.60;;
7306;SDS011;3694;48.732;9.248;2023-02-28T03:37:46;6.40;;;4.60;;
7306;SDS011;3694;48.732;9.248;2023-02-28T03:40:17;5.27;;;4.77;;
7306;SDS011;3694;48.732;9.248;2023-02-28T03:42:51;5.10;;;4.47;;
7306;SDS011;3694;48.732;9.248;2023-02-28T03:45:23;4.73;;;4.33;;
7306;SDS011;3694;48.732;9.248;2023-02-28T03:47:53;6.47;;;4.37;;
7306;SDS011;3694;48.732;9.248;2023-02-28T03:50:27;5.50;;;4.93;;
7306;SDS011;3694;48.732;9.248;2023-02-28T03:53:04;5.40;;;4.90;;
7306;SDS011;3694;48.732;9.248;2023-02-28T03:55:38;6.80;;;4.43;;
7306;SDS011;3694;48.732;9.248;2023-02-28T03:58:21;6.60;;;5.07;;
7306;SDS011;3694;48.732;9.248;2023-02-28T04:03:38;5.37;;;4.87;;
7306;SDS011;3694;48.732;9.248;2023-02-28T04:06:05;6.17;;;4.90;;
7306;SDS011;3694;48.732;9.248;2023-02-28T04:08:33;6.70;;;5.10;;
7306;SDS011;3694;48.732;9.248;2023-02-28T04:11:03;6.10;;;5.00;;
7306;SDS011;3694;48.732;9.248;2023-02-28T04:13:39;6.60;;;5.03;;
7306;SDS011;3694;48.732;9.248;2023-02-28T04:16:07;6.07;;;5.07;;
7306;SDS011;3694;48.732;9.248;2023-02-28T04:18:37;5.57;;;5.03;;
7306;SDS011;3694;48.732;9.248;2023-02-28T04:21:03;5.80;;;5.20;;
7306;SDS011;3694;48.732;9.248;2023-02-28T04:23:30;4.80;;;4.40;;
7306;SDS011;3694;48.732;9.248;2023-02-28T04:25:56;6.03;;;4.90;;
7306;SDS011;3694;48.732;9.248;2023-02-28T04:28:21;8.07;;;5.57;;
7306;SDS011;3694;48.732;9.248;2023-02-28T04:30:47;6.80;;;5.40;;
7306;SDS011;3694;48.732;9.248;2023-02-28T04:33:12;5.50;;;4.33;;
7306;SDS011;3694;48.732;9.248;2023-02-28T04:35:38;6.07;;;5.13;;
7306;SDS011;3694;48.732;9.248;2023-02-28T04:38:03;7.50;;;5.00;;
7306;SDS011;3694;48.732;9.248;2023-02-28T04:40:29;5.93;;;5.33;;
7306;SDS011;3694;48.732;9.248;2023-02-28T04:42:54;4.43;;;4.03;;
7306;SDS011;3694;48.732;9.248;2023-02-28T04:45:20;5.17;;;4.67;;
7306;SDS011;3694;48.732;9.248;2023-02-28T04:47:45;5.40;;;4.43;;
7306;SDS011;3694;48.732;9.248;2023-02-28T04:50:11;6.00;;;5.27;;
7306;SDS011;3694;48.732;9.248;2023-02-28T04:52:36;5.33;;;4.83;;
7306;SDS011;3694;48.732;9.248;2023-02-28T04:55:02;6.77;;;5.03;;
7306;SDS011;3694;48.732;9.248;2023-02-28T04:57:28;7.20;;;5.97;;
7306;SDS011;3694;48.732;9.248;2023-02-28T04:59:54;6.50;;;5.80;;
7306;SDS011;3694;48.732;9.248;2023-02-28T05:02:20;5.33;;;4.83;;
7306;SDS011;3694;48.732;9.248;2023-02-28T05:04:46;8.70;;;4.93;;
7306;SDS011;3694;48.732;9.248;2023-02-28T05:07:11;7.20;;;5.27;;
7306;SDS011;3694;48.732;9.248;2023-02-28T05:09:37;6.17;;;5.57;;
7306;SDS011;3694;48.732;9.248;2023-02-28T05:12:02;8.40;;;6.33;;
7306;SDS011;3694;48.732;9.248;2023-02-28T05:14:28;5.23;;;4.73;;
7306;SDS011;3694;48.732;9.248;2023-02-28T05:16:53;8.37;;;5.93;;
7306;SDS011;3694;48.732;9.248;2023-02-28T05:19:19;6.47;;;5.47;;
7306;SDS011;3694;48.732;9.248;2023-02-28T05:21:50;7.40;;;6.50;;
7306;SDS011;3694;48.732;9.248;2023-02-28T05:24:17;9.13;;;6.73;;
7306;SDS011;3694;48.732;9.248;2023-02-28T05:26:48;7.83;;;6.13;;
7306;SDS011;3694;48.732;9.248;2023-02-28T05:29:16;6.47;;;5.80;;
7306;SDS011;3694;48.732;9.248;2023-02-28T05:31:41;6.67;;;5.87;;
7306;SDS011;3694;48.732;9.248;2023-02-28T05:34:07;7.60;;;5.83;;
7306;SDS011;3694;48.732;9.248;2023-02-28T05:36:33;6.53;;;5.93;;
7306;SDS011;3694;48.732;9.248;2023-02-28T05:38:58;8.23;;;6.33;;
7306;SDS011;3694;48.732;9.248;2023-02-28T05:41:24;8.63;;;4.97;;
7306;SDS011;3694;48.732;9.248;2023-02-28T05:43:50;9.93;;;6.33;;
7306;SDS011;3694;48.732;9.248;2023-02-28T05:46:16;7.20;;;6.10;;
7306;SDS011;3694;48.732;9.248;2023-02-28T05:48:42;6.80;;;6.00;;
7306;SDS011;3694;48.732;9.248;2023-02-28T05:51:10;7.37;;;6.20;;
7306;SDS011;3694;48.732;9.248;2023-02-28T05:53:36;7.73;;;6.37;;
7306;SDS011;3694;48.732;9.248;2023-02-28T05:56:02;7.33;;;6.10;;
7306;SDS011;3694;48.732;9.248;2023-02-28T05:58:28;6.83;;;5.83;;
7306;SDS011;3694;48.732;9.248;2023-02-28T06:00:56;6.70;;;5.47;;
7306;SDS011;3694;48.732;9.248;2023-02-28T06:03:25;6.67;;;5.97;;
7306;SDS011;3694;48.732;9.248;2023-02-28T06:05:51;7.03;;;6.30;;
7306;SDS011;3694;48.732;9.248;2023-02-28T06:08:17;7.27;;;5.83;;
7306;SDS011;3694;48.732;9.248;2023-02-28T06:10:43;6.57;;;5.87;;
7306;SDS011;3694;48.732;9.248;2023-02-28T06:13:09;6.97;;;6.27;;
7306;SDS011;3694;48.732;9.248;2023-02-28T06:15:36;7.03;;;6.33;;
7306;SDS011;3694;48.732;9.248;2023-02-28T06:18:02;8.03;;;7.03;;
7306;SDS011;3694;48.732;9.248;2023-02-28T06:20:28;8.63;;;6.63;;
7306;SDS011;3694;48.732;9.248;2023-02-28T06:22:54;8.07;;;5.70;;
7306;SDS011;3694;48.732;9.248;2023-02-28T06:25:23;7.50;;;6.43;;
7306;SDS011;3694;48.732;9.248;2023-02-28T06:27:49;6.90;;;6.20;;
7306;SDS011;3694;48.732;9.248;2023-02-28T06:30:16;8.73;;;6.70;;
7306;SDS011;3694;48.732;9.248;2023-02-28T06:32:42;7.37;;;6.50;;
7306;SDS011;3694;48.732;9.248;2023-02-28T06:35:07;9.30;;;7.30;;
7306;SDS011;3694;48.732;9.248;2023-02-28T06:37:33;7.83;;;7.03;;
7306;SDS011;3694;48.732;9.248;2023-02-28T06:39:59;7.57;;;6.70;;
7306;SDS011;3694;48.732;9.248;2023-02-28T06:42:25;9.70;;;7.50;;
7306;SDS011;3694;48.732;9.248;2023-02-28T06:44:56;8.60;;;6.57;;
7306;SDS011;3694;48.732;9.248;2023-02-28T06:47:22;9.90;;;6.93;;
7306;SDS011;3694;48.732;9.248;2023-02-28T06:49:48;8.77;;;7.43;;
7306;SDS011;3694;48.732;9.248;2023-02-28T06:52:14;8.57;;;7.17;;
7306;SDS011;3694;48.732;9.248;2023-02-28T06:54:40;9.17;;;7.40;;
7306;SDS011;3694;48.732;9.248;2023-02-28T06:57:06;9.87;;;6.77;;
7306;SDS011;3694;48.732;9.248;2023-02-28T06:59:32;8.70;;;7.60;;
7306;SDS011;3694;48.732;9.248;2023-02-28T07:01:58;7.97;;;7.17;;
7306;SDS011;3694;48.732;9.248;2023-02-28T07:04:23;7.87;;;7.07;;
7306;SDS011;3694;48.732;9.248;2023-02-28T07:06:49;8.77;;;7.33;;
7306;SDS011;3694;48.732;9.248;2023-02-28T07:09:14;7.43;;;6.73;;
7306;SDS011;3694;48.732;9.248;2023-02-28T07:11:40;8.97;;;6.80;;
7306;SDS011;3694;48.732;9.248;2023-02-28T07:14:07;7.70;;;6.90;;
7306;SDS011;3694;48.732;9.248;2023-02-28T07:16:33;7.50;;;6.70;;
7306;SDS011;3694;48.732;9.248;2023-02-28T07:18:58;7.23;;;6.47;;
7306;SDS011;3694;48.732;9.248;2023-02-28T07:21:24;8.00;;;7.20;;
7306;SDS011;3694;48.732;9.248;2023-02-28T07:23:50;8.33;;;7.30;;
7306;SDS011;3694;48.732;9.248;2023-02-28T07:26:17;8.23;;;6.93;;
7306;SDS011;3694;48.732;9.248;2023-02-28T07:28:44;8.83;;;7.23;;
7306;SDS011;3694;48.732;9.248;2023-02-28T07:31:12;10.30;;;7.73;;
7306;SDS011;3694;48.732;9.248;2023-02-28T07:33:39;10.50;;;8.10;;
7306;SDS011;3694;48.732;9.248;2023-02-28T07:36:05;9.00;;;7.70;;
7306;SDS011;3694;48.732;9.248;2023-02-28T07:38:36;10.00;;;7.50;;
7306;SDS011;3694;48.732;9.248;2023-02-28T07:41:02;8.10;;;7.20;;
7306;SDS011;3694;48.732;9.248;2023-02-28T07:43:31;9.40;;;8.07;;
7306;SDS011;3694;48.732;9.248;2023-02-28T07:46:05;9.13;;;7.70;;
7306;SDS011;3694;48.732;9.248;2023-02-28T07:48:32;7.80;;;7.00;;
7306;SDS011;3694;48.732;9.248;2023-02-28T07:50:58;9.70;;;8.43;;
7306;SDS011;3694;48.732;9.248;2023-02-28T07:53:24;8.17;;;7.07;;
7306;SDS011;3694;48.732;9.248;2023-02-28T07:55:54;8.43;;;7.60;;
7306;SDS011;3694;48.732;9.248;2023-02-28T07:58:23;7.03;;;6.33;;
7306;SDS011;3694;48.732;9.248;2023-02-28T08:00:49;7.83;;;7.03;;
7306;SDS011;3694;48.732;9.248;2023-02-28T08:03:14;9.50;;;7.03;;
7306;SDS011;3694;48.732;9.248;2023-02-28T08:05:41;8.40;;;7.50;;
7306;SDS011;3694;48.732;9.248;2023-02-28T08:08:07;7.33;;;6.63;;
7306;SDS011;3694;48.732;9.248;2023-02-28T08:10:32;9.20;;;8.17;;
7306;SDS011;3694;48.732;9.248;2023-02-28T08:12:58;8.93;;;7.30;;
7306;SDS011;3694;48.732;9.248;2023-02-28T08:15:24;9.70;;;8.00;;
7306;SDS011;3694;48.732;9.248;2023-02-28T08:17:50;9.83;;;7.57;;
7306;SDS011;3694;48.732;9.248;2023-02-28T08:20:16;9.10;;;7.80;;
7306;SDS011;3694;48.732;9.248;2023-02-28T08:22:41;11.03;;;7.90;;
7306;SDS011;3694;48.732;9.248;2023-02-28T08:25:07;8.50;;;7.70;;
7306;SDS011;3694;48.732;9.248;2023-02-28T08:27:33;10.87;;;7.93;;
7306;SDS011;3694;48.732;9.248;2023-02-28T08:29:59;10.20;;;8.43;;
7306;SDS011;3694;48.732;9.248;2023-02-28T08:32:25;9.73;;;8.23;;
7306;SDS011;3694;48.732;9.248;2023-02-28T08:34:50;10.00;;;7.83;;
7306;SDS011;3694;48.732;9.248;2023-02-28T08:37:16;8.03;;;7.23;;
7306;SDS011;3694;48.732;9.248;2023-02-28T08:39:41;7.43;;;6.63;;
7306;SDS011;3694;48.732;9.248;2023-02-28T08:42:07;10.97;;;8.30;;
7306;SDS011;3694;48.732;9.248;2023-02-28T08:44:32;9.33;;;8.33;;
7306;SDS011;3694;48.732;9.248;2023-02-28T08:46:58;9.23;;;7.33;;
7306;SDS011;3694;48.732;9.248;2023-02-28T08:49:24;9.73;;;8.00;;
7306;SDS011;3694;48.732;9.248;2023-02-28T08:51:49;9.80;;;8.03;;
7306;SDS011;3694;48.732;9.248;2023-02-28T08:54:15;8.97;;;7.83;;
7306;SDS011;3694;48.732;9.248;2023-02-28T08:56:44;9.00;;;8.07;;
7306;SDS011;3694;48.732;9.248;2023-02-28T08:59:10;10.27;;;7.73;;
7306;SDS011;3694;48.732;9.248;2023-02-28T09:01:35;12.03;;;8.17;;
7306;SDS011;3694;48.732;9.248;2023-02-28T09:04:01;9.20;;;7.20;;
7306;SDS011;3694;48.732;9.248;2023-02-28T09:06:27;9.37;;;8.27;;
7306;SDS011;3694;48.732;9.248;2023-02-28T09:08:55;10.13;;;7.83;;
7306;SDS011;3694;48.732;9.248;2023-02-28T09:11:23;9.50;;;8.33;;
7306;SDS011;3694;48.732;9.248;2023-02-28T09:13:49;9.80;;;8.73;;
7306;SDS011;3694;48.732;9.248;2023-02-28T09:16:15;6.53;;;5.93;;
7306;SDS011;3694;48.732;9.248;2023-02-28T09:18:41;8.13;;;7.03;;
7306;SDS011;3694;48.732;9.248;2023-02-28T09:21:08;8.90;;;7.73;;
7306;SDS011;3694;48.732;9.248;2023-02-28T09:23:38;10.57;;;7.87;;
7306;SDS011;3694;48.732;9.248;2023-02-28T09:26:04;9.03;;;8.07;;
7306;SDS011;3694;48.732;9.248;2023-02-28T09:28:30;10.63;;;8.47;;
7306;SDS011;3694;48.732;9.248;2023-02-28T09:30:55;9.53;;;6.83;;
7306;SDS011;3694;48.732;9.248;2023-02-28T09:33:23;8.20;;;6.47;;
7306;SDS011;3694;48.732;9.248;2023-02-28T09:35:49;8.73;;;7.83;;
7306;SDS011;3694;48.732;9.248;2023-02-28T09:38:16;12.03;;;8.17;;
7306;SDS011;3694;48.732;9.248;2023-02-28T09:40:47;7.07;;;6.37;;
7306;SDS011;3694;48.732;9.248;2023-02-28T09:43:20;12.07;;;8.63;;
7306;SDS011;3694;48.732;9.248;2023-02-28T09:45:48;12.67;;;8.47;;
7306;SDS011;3694;48.732;9.248;2023-02-28T09:48:34;8.43;;;7.33;;
7306;SDS011;3694;48.732;9.248;2023-02-28T09:51:03;10.20;;;7.87;;
7306;SDS011;3694;48.732;9.248;2023-02-28T09:53:48;8.67;;;7.77;;
7306;SDS011;3694;48.732;9.248;2023-02-28T10:07:26;11.13;;;8.43;;
7306;SDS011;3694;48.732;9.248;2023-02-28T10:09:58;9.60;;;7.50;;
7306;SDS011;3694;48.732;9.248;2023-02-28T10:12:27;10.27;;;8.60;;
7306;SDS011;3694;48.732;9.248;2023-02-28T10:14:54;20.67;;;9.00;;
7306;SDS011;3694;48.732;9.248;2023-02-28T10:17:24;9.90;;;8.30;;
7306;SDS011;3694;48.732;9.248;2023-02-28T10:20:14;11.00;;;8.37;;
7306;SDS011;3694;48.732;9.248;2023-02-28T10:25:36;10.57;;;8.47;;
7306;SDS011;3694;48.732;9.248;2023-02-28T10:28:10;9.37;;;8.00;;
7306;SDS011;3694;48.732;9.248;2023-02-28T10:30:38;9.70;;;8.03;;
7306;SDS011;3694;48.732;9.248;2023-02-28T10:33:43;10.43;;;8.17;;
7306;SDS011;3694;48.732;9.248;2023-02-28T10:36:02;9.13;;;7.40;;
7306;SDS011;3694;48.732;9.248;2023-02-28T10:38:35;9.57;;;7.87;;
7306;SDS011;3694;48.732;9.248;2023-02-28T10:41:06;9.40;;;8.43;;
7306;SDS011;3694;48.732;9.248;2023-02-28T10:43:34;9.27;;;7.67;;
7306;SDS011;3694;48.732;9.248;2023-02-28T10:46:02;7.97;;;6.97;;
7306;SDS011;3694;48.732;9.248;2023-02-28T10:48:38;8.10;;;7.30;;
7306;SDS011;3694;48.732;9.248;2023-02-28T10:51:10;8.67;;;7.37;;
7306;SDS011;3694;48.732;9.248;2023-02-28T11:01:24;11.03;;;8.10;;
7306;SDS011;3694;48.732;9.248;2023-02-28T11:03:51;10.13;;;8.20;;
7306;SDS011;3694;48.732;9.248;2023-02-28T11:06:21;8.73;;;7.83;;
7306;SDS011;3694;48.732;9.248;2023-02-28T11:08:54;9.77;;;7.90;;
7306;SDS011;3694;48.732;9.248;2023-02-28T11:11:22;10.07;;;7.60;;
7306;SDS011;3694;48.732;9.248;2023-02-28T11:13:51;7.77;;;6.10;;
7306;SDS011;3694;48.732;9.248;2023-02-28T11:16:20;8.47;;;6.83;;
7306;SDS011;3694;48.732;9.248;2023-02-28T11:18:48;8.80;;;6.90;;
7306;SDS011;3694;48.732;9.248;2023-02-28T11:21:16;9.77;;;7.70;;
7306;SDS011;3694;48.732;9.248;2023-02-28T11:23:45;9.27;;;8.30;;
7306;SDS011;3694;48.732;9.248;2023-02-28T11:26:11;9.00;;;6.87;;
7306;SDS011;3694;48.732;9.248;2023-02-28T11:28:37;9.00;;;7.30;;
7306;SDS011;3694;48.732;9.248;2023-02-28T11:33:53;10.00;;;8.10;;
7306;SDS011;3694;48.732;9.248;2023-02-28T11:36:24;8.33;;;7.43;;
7306;SDS011;3694;48.732;9.248;2023-02-28T11:38:56;7.40;;;6.63;;
7306;SDS011;3694;48.732;9.248;2023-02-28T11:46:47;9.57;;;8.57;;
7306;SDS011;3694;48.732;9.248;2023-02-28T11:51:54;8.70;;;7.53;;
7306;SDS011;3694;48.732;9.248;2023-02-28T11:56:58;10.63;;;7.93;;
7306;SDS011;3694;48.732;9.248;2023-02-28T12:02:24;8.40;;;7.57;;
7306;SDS011;3694;48.732;9.248;2023-02-28T12:05:17;10.43;;;8.07;;
7306;SDS011;3694;48.732;9.248;2023-02-28T12:19:31;15.77;;;7.40;;
7306;SDS011;3694;48.732;9.248;2023-02-28T12:22:30;7.90;;;7.10;;
7306;SDS011;3694;48.732;9.248;2023-02-28T12:27:47;8.10;;;6.97;;
7306;SDS011;3694;48.732;9.248;2023-02-28T12:30:19;8.63;;;7.70;;
7306;SDS011;3694;48.732;9.248;2023-02-28T12:33:10;9.13;;;8.23;;
7306;SDS011;3694;48.732;9.248;2023-02-28T12:35:56;8.07;;;7.27;;
7306;SDS011;3694;48.732;9.248;2023-02-28T12:38:44;8.60;;;7.80;;
7306;SDS011;3694;48.732;9.248;2023-02-28T12:41:16;7.93;;;6.70;;
7306;SDS011;3694;48.732;9.248;2023-02-28T12:44:00;8.80;;;7.53;;
7306;SDS011;3694;48.732;9.248;2023-02-28T12:46:34;9.07;;;8.17;;
7306;SDS011;3694;48.732;9.248;2023-02-28T12:49:05;9.23;;;8.37;;
7306;SDS011;3694;48.732;9.248;2023-02-28T12:51:34;10.33;;;7.37;;
7306;SDS011;3694;48.732;9.248;2023-02-28T12:54:07;8.93;;;7.37;;
7306;SDS011;3694;48.732;9.248;2023-02-28T13:08:15;8.33;;;7.53;;
7306;SDS011;3694;48.732;9.248;2023-02-28T13:10:56;10.50;;;7.90;;
7306;SDS011;3694;48.732;9.248;2023-02-28T13:13:23;10.47;;;8.30;;
7306;SDS011;3694;48.732;9.248;2023-02-28T13:16:03;9.37;;;7.97;;
7306;SDS011;3694;48.732;9.248;2023-02-28T13:21:10;7.87;;;7.10;;
7306;SDS011;3694;48.732;9.248;2023-02-28T13:34:30;9.00;;;7.50;;
7306;SDS011;3694;48.732;9.248;2023-02-28T13:42:22;7.87;;;6.97;;
7306;SDS011;3694;48.732;9.248;2023-02-28T13:47:36;8.67;;;7.87;;
7306;SDS011;3694;48.732;9.248;2023-02-28T13:52:55;8.90;;;7.57;;
7306;SDS011;3694;48.732;9.248;2023-02-28T14:01:02;8.07;;;6.47;;
7306;SDS011;3694;48.732;9.248;2023-02-28T14:06:35;8.83;;;6.90;;
7306;SDS011;3694;48.732;9.248;2023-02-28T14:09:06;8.93;;;8.03;;
7306;SDS011;3694;48.732;9.248;2023-02-28T14:11:50;7.87;;;7.10;;
7306;SDS011;3694;48.732;9.248;2023-02-28T14:17:04;9.83;;;7.80;;
7306;SDS011;3694;48.732;9.248;2023-02-28T14:19:38;9.60;;;7.03;;
7306;SDS011;3694;48.732;9.248;2023-02-28T14:25:22;8.57;;;7.23;;
7306;SDS011;3694;48.732;9.248;2023-02-28T14:28:01;8.63;;;7.77;;
7306;SDS011;3694;48.732;9.248;2023-02-28T14:30:51;9.07;;;7.37;;
7306;SDS011;3694;48.732;9.248;2023-02-28T14:36:35;10.53;;;7.93;;
7306;SDS011;3694;48.732;9.248;2023-02-28T14:39:22;10.87;;;7.93;;
7306;SDS011;3694;48.732;9.248;2023-02-28T14:41:49;7.87;;;6.93;;
7306;SDS011;3694;48.732;9.248;2023-02-28T14:46:55;7.63;;;6.87;;
7306;SDS011;3694;48.732;9.248;2023-02-28T14:49:35;9.17;;;7.97;;
7306;SDS011;3694;48.732;9.248;2023-02-28T14:54:40;9.40;;;8.00;;
7306;SDS011;3694;48.732;9.248;2023-02-28T14:57:12;8.87;;;7.60;;
7306;SDS011;3694;48.732;9.248;2023-02-28T15:02:39;9.23;;;8.20;;
7306;SDS011;3694;48.732;9.248;2023-02-28T15:05:28;8.03;;;6.27;;
7306;SDS011;3694;48.732;9.248;2023-02-28T15:08:12;9.87;;;8.07;;
7306;SDS011;3694;48.732;9.248;2023-02-28T15:10:43;9.60;;;8.20;;
7306;SDS011;3694;48.732;9.248;2023-02-28T15:13:15;8.50;;;7.57;;
7306;SDS011;3694;48.732;9.248;2023-02-28T15:18:38;9.43;;;8.43;;
7306;SDS011;3694;48.732;9.248;2023-02-28T15:21:25;9.70;;;8.00;;
7306;SDS011;3694;48.732;9.248;2023-02-28T15:23:56;9.30;;;8.23;;
7306;SDS011;3694;48.732;9.248;2023-02-28T15:26:28;8.90;;;7.00;;
7306;SDS011;3694;48.732;9.248;2023-02-28T15:37:37;7.20;;;6.50;;
7306;SDS011;3694;48.732;9.248;2023-02-28T15:42:30;7.63;;;6.67;;
7306;SDS011;3694;48.732;9.248;2023-02-28T15:44:57;9.07;;;8.07;;
7306;SDS011;3694;48.732;9.248;2023-02-28T15:47:23;9.00;;;7.33;;
7306;SDS011;3694;48.732;9.248;2023-02-28T15:52:20;8.90;;;8.00;;
7306;SDS011;3694;48.732;9.248;2023-02-28T15:54:51;9.97;;;7.53;;
7306;SDS011;3694;48.732;9.248;2023-02-28T15:57:24;9.07;;;8.17;;
7306;SDS011;3694;48.732;9.248;2023-02-28T15:59:52;10.07;;;8.80;;
7306;SDS011;3694;48.732;9.248;2023-02-28T16:02:22;8.73;;;7.83;;
7306;SDS011;3694;48.732;9.248;2023-02-28T16:05:01;9.27;;;8.37;;
7306;SDS011;3694;48.732;9.248;2023-02-28T16:07:39;9.20;;;8.30;;
7306;SDS011;3694;48.732;9.248;2023-02-28T16:10:06;9.63;;;8.63;;
7306;SDS011;3694;48.732;9.248;2023-02-28T16:12:34;13.47;;;9.10;;
7306;SDS011;3694;48.732;9.248;2023-02-28T16:15:03;10.17;;;7.87;;
7306;SDS011;3694;48.732;9.248;2023-02-28T16:17:33;8.70;;;7.70;;
7306;SDS011;3694;48.732;9.248;2023-02-28T16:20:00;9.23;;;8.27;;
7306;SDS011;3694;48.732;9.248;2023-02-28T16:22:26;10.70;;;8.03;;
7306;SDS011;3694;48.732;9.248;2023-02-28T16:24:52;8.30;;;6.57;;
7306;SDS011;3694;48.732;9.248;2023-02-28T16:29:55;7.37;;;6.50;;
7306;SDS011;3694;48.732;9.248;2023-02-28T16:32:20;8.63;;;7.67;;
7306;SDS011;3694;48.732;9.248;2023-02-28T16:34:46;9.47;;;8.37;;
7306;SDS011;3694;48.732;9.248;2023-02-28T16:37:16;10.87;;;8.77;;
7306;SDS011;3694;48.732;9.248;2023-02-28T16:39:42;10.30;;;8.13;;
7306;SDS011;3694;48.732;9.248;2023-02-28T16:42:22;11.43;;;8.97;;
7306;SDS011;3694;48.732;9.248;2023-02-28T16:44:49;10.40;;;8.43;;
7306;SDS011;3694;48.732;9.248;2023-02-28T16:47:16;10.20;;;9.20;;
7306;SDS011;3694;48.732;9.248;2023-02-28T16:49:42;10.13;;;8.63;;
7306;SDS011;3694;48.732;9.248;2023-02-28T16:52:08;10.53;;;9.13;;
7306;SDS011;3694;48.732;9.248;2023-02-28T16:54:34;7.17;;;6.43;;
7306;SDS011;3694;48.732;9.248;2023-02-28T16:57:00;9.80;;;8.80;;
7306;SDS011;3694;48.732;9.248;2023-02-28T16:59:26;10.70;;;9.10;;
7306;SDS011;3694;48.732;9.248;2023-02-28T17:01:54;10.37;;;8.37;;
7306;SDS011;3694;48.732;9.248;2023-02-28T17:04:22;10.30;;;9.30;;
7306;SDS011;3694;48.732;9.248;2023-02-28T17:06:48;11.10;;;10.00;;
7306;SDS011;3694;48.732;9.248;2023-02-28T17:09:16;9.53;;;8.53;;
7306;SDS011;3694;48.732;9.248;2023-02-28T17:11:44;10.77;;;9.70;;
7306;SDS011;3694;48.732;9.248;2023-02-28T17:14:10;11.67;;;10.03;;
7306;SDS011;3694;48.732;9.248;2023-02-28T17:16:36;12.37;;;10.27;;
7306;SDS011;3694;48.732;9.248;2023-02-28T17:19:05;13.40;;;8.30;;
7306;SDS011;3694;48.732;9.248;2023-02-28T17:21:34;12.17;;;9.57;;
7306;SDS011;3694;48.732;9.248;2023-02-28T17:24:00;12.73;;;10.57;;
7306;SDS011;3694;48.732;9.248;2023-02-28T17:26:25;10.33;;;8.33;;
7306;SDS011;3694;48.732;9.248;2023-02-28T17:28:52;11.57;;;9.33;;
7306;SDS011;3694;48.732;9.248;2023-02-28T17:31:20;11.33;;;9.93;;
7306;SDS011;3694;48.732;9.248;2023-02-28T17:33:46;12.47;;;9.87;;
7306;SDS011;3694;48.732;9.248;2023-02-28T17:36:16;11.40;;;9.80;;
7306;SDS011;3694;48.732;9.248;2023-02-28T17:38:46;11.40;;;9.50;;
7306;SDS011;3694;48.732;9.248;2023-02-28T17:41:12;11.07;;;9.97;;
7306;SDS011;3694;48.732;9.248;2023-02-28T17:43:38;11.73;;;10.10;;
7306;SDS011;3694;48.732;9.248;2023-02-28T17:46:20;10.87;;;9.20;;
7306;SDS011;3694;48.732;9.248;2023-02-28T17:48:47;13.90;;;10.13;;
7306;SDS011;3694;48.732;9.248;2023-02-28T17:51:14;14.23;;;10.43;;
7306;SDS011;3694;48.732;9.248;2023-02-28T17:53:40;11.17;;;9.67;;
7306;SDS011;3694;48.732;9.248;2023-02-28T17:56:24;11.53;;;9.83;;
7306;SDS011;3694;48.732;9.248;2023-02-28T17:58:51;11.60;;;9.07;;
7306;SDS011;3694;48.732;9.248;2023-02-28T18:01:18;11.40;;;9.70;;
7306;SDS011;3694;48.732;9.248;2023-02-28T18:03:45;13.17;;;9.83;;
7306;SDS011;3694;48.732;9.248;2023-02-28T18:06:16;12.10;;;9.97;;
7306;SDS011;3694;48.732;9.248;2023-02-28T18:08:53;11.33;;;9.53;;